sensor_id;sensor_type;location;lat;lon;timestamp;temperature;humidity
33105;DHT22;19476;51.448;6.674;2024-02-26T00:01:13;13.10;47.10
33105;DHT22;19476;51.448;6.674;2024-02-26T00:03:48;13.20;47.50
33105;DHT22;19476;51.448;6.674;2024-02-26T00:06:14;13.20;47.60
33105;DHT22;19476;51.448;6.674;2024-02-26T00:08:40;13.10;47.40
33105;DHT22;19476;51.448;6.674;2024-02-26T00:11:10;13.10;47.50
33105;DHT22;19476;51.448;6.674;2024-02-26T00:13:55;13.10;47.80
33105;DHT22;19476;51.448;6.674;2024-02-26T00:16:21;13.20;48.00
33105;DHT22;19476;51.448;6.674;2024-02-26T00:18:53;13.20;47.80
33105;DHT22;19476;51.448;6.674;2024-02-26T00:21:19;13.10;47.90
33105;DHT22;19476;51.448;6.674;2024-02-26T00:23:45;13.10;47.90
33105;DHT22;19476;51.448;6.674;2024-02-26T00:29:20;13.10;48.10
33105;DHT22;19476;51.448;6.674;2024-02-26T00:31:50;13.10;48.00
33105;DHT22;19476;51.448;6.674;2024-02-26T00:34:25;13.10;48.10
33105;DHT22;19476;51.448;6.674;2024-02-26T00:36:51;13.10;48.10
33105;DHT22;19476;51.448;6.674;2024-02-26T00:39:17;13.10;48.00
33105;DHT22;19476;51.448;6.674;2024-02-26T00:41:43;13.00;48.10
33105;DHT22;19476;51.448;6.674;2024-02-26T00:44:09;13.00;48.10
33105;DHT22;19476;51.448;6.674;2024-02-26T00:46:34;13.00;48.30
33105;DHT22;19476;51.448;6.674;2024-02-26T00:49:00;13.00;48.40
33105;DHT22;19476;51.448;6.674;2024-02-26T00:51:27;13.00;48.50
33105;DHT22;19476;51.448;6.674;2024-02-26T00:56:19;12.90;48.50
33105;DHT22;19476;51.448;6.674;2024-02-26T00:58:44;12.90;48.60
33105;DHT22;19476;51.448;6.674;2024-02-26T01:01:10;12.90;48.60
33105;DHT22;19476;51.448;6.674;2024-02-26T01:03:36;12.80;48.60
33105;DHT22;19476;51.448;6.674;2024-02-26T01:06:01;12.80;48.60
33105;DHT22;19476;51.448;6.674;2024-02-26T01:08:27;12.80;48.70
33105;DHT22;19476;51.448;6.674;2024-02-26T01:10:53;12.70;48.70
33105;DHT22;19476;51.448;6.674;2024-02-26T01:13:18;12.70;48.90
33105;DHT22;19476;51.448;6.674;2024-02-26T01:15:44;12.70;49.10
33105;DHT22;19476;51.448;6.674;2024-02-26T01:18:10;12.70;49.10
33105;DHT22;19476;51.448;6.674;2024-02-26T01:20:35;12.70;49.20
33105;DHT22;19476;51.448;6.674;2024-02-26T01:23:02;12.70;49.10
33105;DHT22;19476;51.448;6.674;2024-02-26T01:25:27;12.70;48.90
33105;DHT22;19476;51.448;6.674;2024-02-26T01:27:53;12.70;48.90
33105;DHT22;19476;51.448;6.674;2024-02-26T01:30:24;12.70;48.90
33105;DHT22;19476;51.448;6.674;2024-02-26T01:32:50;12.60;48.90
33105;DHT22;19476;51.448;6.674;2024-02-26T01:35:16;12.70;48.90
33105;DHT22;19476;51.448;6.674;2024-02-26T01:37:42;12.70;49.10
33105;DHT22;19476;51.448;6.674;2024-02-26T01:40:10;12.70;49.10
33105;DHT22;19476;51.448;6.674;2024-02-26T01:42:38;12.70;49.20
33105;DHT22;19476;51.448;6.674;2024-02-26T01:45:05;12.70;49.10
33105;DHT22;19476;51.448;6.674;2024-02-26T01:47:32;12.70;49.10
33105;DHT22;19476;51.448;6.674;2024-02-26T01:50:00;12.70;49.00
33105;DHT22;19476;51.448;6.674;2024-02-26T01:52:26;12.80;48.90
33105;DHT22;19476;51.448;6.674;2024-02-26T01:54:52;12.70;48.80
33105;DHT22;19476;51.448;6.674;2024-02-26T01:57:18;12.80;48.80
33105;DHT22;19476;51.448;6.674;2024-02-26T01:59:45;12.80;48.80
33105;DHT22;19476;51.448;6.674;2024-02-26T02:02:11;12.80;48.70
33105;DHT22;19476;51.448;6.674;2024-02-26T02:04:38;12.80;48.70
33105;DHT22;19476;51.448;6.674;2024-02-26T02:07:26;12.70;48.60
33105;DHT22;19476;51.448;6.674;2024-02-26T02:09:53;12.80;48.50
33105;DHT22;19476;51.448;6.674;2024-02-26T02:12:19;12.80;48.60
33105;DHT22;19476;51.448;6.674;2024-02-26T02:14:46;12.80;48.50
33105;DHT22;19476;51.448;6.674;2024-02-26T02:17:12;12.70;48.50
33105;DHT22;19476;51.448;6.674;2024-02-26T02:19:38;12.80;48.60
33105;DHT22;19476;51.448;6.674;2024-02-26T02:22:04;12.80;48.60
33105;DHT22;19476;51.448;6.674;2024-02-26T02:24:34;12.80;48.70
33105;DHT22;19476;51.448;6.674;2024-02-26T02:26:59;12.80;48.70
33105;DHT22;19476;51.448;6.674;2024-02-26T02:29:25;12.80;48.60
33105;DHT22;19476;51.448;6.674;2024-02-26T02:31:53;12.80;48.60
33105;DHT22;19476;51.448;6.674;2024-02-26T02:34:21;12.80;48.60
33105;DHT22;19476;51.448;6.674;2024-02-26T02:36:52;12.90;48.60
33105;DHT22;19476;51.448;6.674;2024-02-26T02:39:17;12.90;48.60
33105;DHT22;19476;51.448;6.674;2024-02-26T02:41:43;12.90;48.60
33105;DHT22;19476;51.448;6.674;2024-02-26T02:44:09;12.90;48.70
33105;DHT22;19476;51.448;6.674;2024-02-26T02:46:35;12.90;48.60
33105;DHT22;19476;51.448;6.674;2024-02-26T02:49:01;12.90;48.60
33105;DHT22;19476;51.448;6.674;2024-02-26T02:51:27;13.00;48.70
33105;DHT22;19476;51.448;6.674;2024-02-26T02:53:52;12.90;48.60
33105;DHT22;19476;51.448;6.674;2024-02-26T02:56:18;13.00;48.60
33105;DHT22;19476;51.448;6.674;2024-02-26T02:58:44;13.00;48.70
33105;DHT22;19476;51.448;6.674;2024-02-26T03:01:10;13.00;48.70
33105;DHT22;19476;51.448;6.674;2024-02-26T03:03:37;13.00;48.60
33105;DHT22;19476;51.448;6.674;2024-02-26T03:06:03;13.00;48.70
33105;DHT22;19476;51.448;6.674;2024-02-26T03:08:29;13.00;48.60
33105;DHT22;19476;51.448;6.674;2024-02-26T03:10:54;12.90;48.50
33105;DHT22;19476;51.448;6.674;2024-02-26T03:13:21;13.00;48.50
33105;DHT22;19476;51.448;6.674;2024-02-26T03:15:46;12.90;48.60
33105;DHT22;19476;51.448;6.674;2024-02-26T03:18:12;13.00;48.60
33105;DHT22;19476;51.448;6.674;2024-02-26T03:20:38;12.90;48.60
33105;DHT22;19476;51.448;6.674;2024-02-26T03:23:04;13.00;48.80
33105;DHT22;19476;51.448;6.674;2024-02-26T03:25:29;13.00;48.90
33105;DHT22;19476;51.448;6.674;2024-02-26T03:27:55;13.00;49.00
33105;DHT22;19476;51.448;6.674;2024-02-26T03:30:21;13.00;49.10
33105;DHT22;19476;51.448;6.674;2024-02-26T03:32:46;13.00;49.20
33105;DHT22;19476;51.448;6.674;2024-02-26T03:35:13;13.00;49.20
33105;DHT22;19476;51.448;6.674;2024-02-26T03:37:39;13.00;49.20
33105;DHT22;19476;51.448;6.674;2024-02-26T03:40:05;13.00;49.30
33105;DHT22;19476;51.448;6.674;2024-02-26T03:42:31;13.00;49.40
33105;DHT22;19476;51.448;6.674;2024-02-26T03:44:57;13.00;49.40
33105;DHT22;19476;51.448;6.674;2024-02-26T03:47:22;12.90;49.40
33105;DHT22;19476;51.448;6.674;2024-02-26T03:49:48;12.90;49.50
33105;DHT22;19476;51.448;6.674;2024-02-26T03:52:14;12.90;49.60
33105;DHT22;19476;51.448;6.674;2024-02-26T03:54:40;12.90;49.70
33105;DHT22;19476;51.448;6.674;2024-02-26T03:57:06;12.80;49.80
33105;DHT22;19476;51.448;6.674;2024-02-26T03:59:31;12.80;50.00
33105;DHT22;19476;51.448;6.674;2024-02-26T04:01:57;12.80;50.10
33105;DHT22;19476;51.448;6.674;2024-02-26T04:04:23;12.70;50.10
33105;DHT22;19476;51.448;6.674;2024-02-26T04:06:49;12.70;50.10
33105;DHT22;19476;51.448;6.674;2024-02-26T04:09:14;12.70;50.20
33105;DHT22;19476;51.448;6.674;2024-02-26T04:11:40;12.60;50.30
33105;DHT22;19476;51.448;6.674;2024-02-26T04:14:06;12.60;50.30
33105;DHT22;19476;51.448;6.674;2024-02-26T04:16:34;12.60;50.40
33105;DHT22;19476;51.448;6.674;2024-02-26T04:19:01;12.50;50.60
33105;DHT22;19476;51.448;6.674;2024-02-26T04:21:26;12.50;50.70
33105;DHT22;19476;51.448;6.674;2024-02-26T04:23:52;12.50;50.70
33105;DHT22;19476;51.448;6.674;2024-02-26T04:26:20;12.50;50.80
33105;DHT22;19476;51.448;6.674;2024-02-26T04:28:46;12.50;51.00
33105;DHT22;19476;51.448;6.674;2024-02-26T04:31:12;12.40;50.90
33105;DHT22;19476;51.448;6.674;2024-02-26T04:33:38;12.40;51.10
33105;DHT22;19476;51.448;6.674;2024-02-26T04:36:04;12.40;51.20
33105;DHT22;19476;51.448;6.674;2024-02-26T04:38:30;12.40;51.20
33105;DHT22;19476;51.448;6.674;2024-02-26T04:40:55;12.40;51.20
33105;DHT22;19476;51.448;6.674;2024-02-26T04:43:21;12.40;51.20
33105;DHT22;19476;51.448;6.674;2024-02-26T04:45:47;12.40;51.40
33105;DHT22;19476;51.448;6.674;2024-02-26T04:48:13;12.40;51.40
33105;DHT22;19476;51.448;6.674;2024-02-26T04:50:39;12.40;51.50
33105;DHT22;19476;51.448;6.674;2024-02-26T04:53:05;12.40;51.50
33105;DHT22;19476;51.448;6.674;2024-02-26T04:55:30;12.40;51.60
33105;DHT22;19476;51.448;6.674;2024-02-26T04:57:56;12.40;51.70
33105;DHT22;19476;51.448;6.674;2024-02-26T05:00:22;12.30;51.70
33105;DHT22;19476;51.448;6.674;2024-02-26T05:02:47;12.30;51.70
33105;DHT22;19476;51.448;6.674;2024-02-26T05:05:13;12.30;51.80
33105;DHT22;19476;51.448;6.674;2024-02-26T05:07:40;12.30;51.80
33105;DHT22;19476;51.448;6.674;2024-02-26T05:10:07;12.30;52.00
33105;DHT22;19476;51.448;6.674;2024-02-26T05:12:33;12.30;51.90
33105;DHT22;19476;51.448;6.674;2024-02-26T05:15:01;12.30;52.00
33105;DHT22;19476;51.448;6.674;2024-02-26T05:17:27;12.30;52.20
33105;DHT22;19476;51.448;6.674;2024-02-26T05:19:53;12.20;52.20
33105;DHT22;19476;51.448;6.674;2024-02-26T05:22:19;12.20;52.30
33105;DHT22;19476;51.448;6.674;2024-02-26T05:24:45;12.20;53.00
33105;DHT22;19476;51.448;6.674;2024-02-26T05:27:10;12.20;52.60
33105;DHT22;19476;51.448;6.674;2024-02-26T05:29:37;12.20;52.70
33105;DHT22;19476;51.448;6.674;2024-02-26T05:32:04;12.20;52.70
33105;DHT22;19476;51.448;6.674;2024-02-26T05:34:30;12.10;52.90
33105;DHT22;19476;51.448;6.674;2024-02-26T05:36:56;12.20;52.80
33105;DHT22;19476;51.448;6.674;2024-02-26T05:39:22;12.10;52.80
33105;DHT22;19476;51.448;6.674;2024-02-26T05:41:48;12.10;52.90
33105;DHT22;19476;51.448;6.674;2024-02-26T05:44:15;12.10;53.00
33105;DHT22;19476;51.448;6.674;2024-02-26T05:46:41;12.10;53.00
33105;DHT22;19476;51.448;6.674;2024-02-26T05:49:07;12.10;53.00
33105;DHT22;19476;51.448;6.674;2024-02-26T05:51:33;12.10;53.10
33105;DHT22;19476;51.448;6.674;2024-02-26T05:53:59;12.10;53.20
33105;DHT22;19476;51.448;6.674;2024-02-26T05:56:24;12.10;53.40
33105;DHT22;19476;51.448;6.674;2024-02-26T05:58:51;12.10;53.30
33105;DHT22;19476;51.448;6.674;2024-02-26T06:01:17;12.10;53.40
33105;DHT22;19476;51.448;6.674;2024-02-26T06:03:43;12.10;53.40
33105;DHT22;19476;51.448;6.674;2024-02-26T06:06:10;12.10;53.50
33105;DHT22;19476;51.448;6.674;2024-02-26T06:08:36;12.10;53.50
33105;DHT22;19476;51.448;6.674;2024-02-26T06:11:05;12.00;53.40
33105;DHT22;19476;51.448;6.674;2024-02-26T06:13:33;12.10;53.90
33105;DHT22;19476;51.448;6.674;2024-02-26T06:15:59;12.00;53.80
33105;DHT22;19476;51.448;6.674;2024-02-26T06:18:28;12.10;53.90
33105;DHT22;19476;51.448;6.674;2024-02-26T06:20:53;11.90;54.00
33105;DHT22;19476;51.448;6.674;2024-02-26T06:23:19;12.10;53.80
33105;DHT22;19476;51.448;6.674;2024-02-26T06:25:45;12.10;53.80
33105;DHT22;19476;51.448;6.674;2024-02-26T06:28:12;12.10;53.70
33105;DHT22;19476;51.448;6.674;2024-02-26T06:30:37;12.10;53.70
33105;DHT22;19476;51.448;6.674;2024-02-26T06:33:03;12.10;53.80
33105;DHT22;19476;51.448;6.674;2024-02-26T06:35:29;12.10;54.40
33105;DHT22;19476;51.448;6.674;2024-02-26T06:37:55;12.10;53.70
33105;DHT22;19476;51.448;6.674;2024-02-26T06:40:21;12.00;53.60
33105;DHT22;19476;51.448;6.674;2024-02-26T06:42:47;12.00;53.70
33105;DHT22;19476;51.448;6.674;2024-02-26T06:45:13;12.00;53.80
33105;DHT22;19476;51.448;6.674;2024-02-26T06:47:38;12.00;53.70
33105;DHT22;19476;51.448;6.674;2024-02-26T06:50:04;12.00;53.80
33105;DHT22;19476;51.448;6.674;2024-02-26T06:52:30;12.00;54.00
33105;DHT22;19476;51.448;6.674;2024-02-26T06:54:56;12.00;54.00
33105;DHT22;19476;51.448;6.674;2024-02-26T06:57:22;12.00;54.70
33105;DHT22;19476;51.448;6.674;2024-02-26T06:59:47;12.00;54.10
33105;DHT22;19476;51.448;6.674;2024-02-26T07:02:14;12.00;54.20
33105;DHT22;19476;51.448;6.674;2024-02-26T07:04:39;11.90;54.20
33105;DHT22;19476;51.448;6.674;2024-02-26T07:07:06;11.90;54.20
33105;DHT22;19476;51.448;6.674;2024-02-26T07:09:32;11.90;54.40
33105;DHT22;19476;51.448;6.674;2024-02-26T07:11:58;11.90;54.40
33105;DHT22;19476;51.448;6.674;2024-02-26T07:14:23;12.00;54.50
33105;DHT22;19476;51.448;6.674;2024-02-26T07:16:50;12.00;54.50
33105;DHT22;19476;51.448;6.674;2024-02-26T07:19:16;12.00;54.50
33105;DHT22;19476;51.448;6.674;2024-02-26T07:21:42;12.00;54.50
33105;DHT22;19476;51.448;6.674;2024-02-26T07:24:08;12.00;54.40
33105;DHT22;19476;51.448;6.674;2024-02-26T07:26:34;12.00;54.50
33105;DHT22;19476;51.448;6.674;2024-02-26T07:29:00;12.10;54.50
33105;DHT22;19476;51.448;6.674;2024-02-26T07:31:26;12.10;54.50
33105;DHT22;19476;51.448;6.674;2024-02-26T07:33:52;12.10;54.50
33105;DHT22;19476;51.448;6.674;2024-02-26T07:36:18;12.10;54.50
33105;DHT22;19476;51.448;6.674;2024-02-26T07:38:43;12.10;54.50
33105;DHT22;19476;51.448;6.674;2024-02-26T07:41:09;12.10;54.40
33105;DHT22;19476;51.448;6.674;2024-02-26T07:43:35;12.10;54.40
33105;DHT22;19476;51.448;6.674;2024-02-26T07:46:01;12.10;54.50
33105;DHT22;19476;51.448;6.674;2024-02-26T07:48:26;12.10;54.60
33105;DHT22;19476;51.448;6.674;2024-02-26T07:50:55;12.10;54.60
33105;DHT22;19476;51.448;6.674;2024-02-26T07:53:20;12.00;54.80
33105;DHT22;19476;51.448;6.674;2024-02-26T07:55:46;12.00;54.60
33105;DHT22;19476;51.448;6.674;2024-02-26T07:58:12;12.10;54.70
33105;DHT22;19476;51.448;6.674;2024-02-26T08:00:38;12.10;54.80
33105;DHT22;19476;51.448;6.674;2024-02-26T08:03:04;12.10;54.80
33105;DHT22;19476;51.448;6.674;2024-02-26T08:05:30;12.10;55.00
33105;DHT22;19476;51.448;6.674;2024-02-26T08:07:55;12.10;54.90
33105;DHT22;19476;51.448;6.674;2024-02-26T08:10:21;12.10;54.80
33105;DHT22;19476;51.448;6.674;2024-02-26T08:12:47;12.10;54.80
33105;DHT22;19476;51.448;6.674;2024-02-26T08:15:12;12.10;54.80
33105;DHT22;19476;51.448;6.674;2024-02-26T08:17:38;12.10;54.90
33105;DHT22;19476;51.448;6.674;2024-02-26T08:20:04;12.10;54.90
33105;DHT22;19476;51.448;6.674;2024-02-26T08:22:31;12.10;55.00
33105;DHT22;19476;51.448;6.674;2024-02-26T08:24:57;12.20;55.00
33105;DHT22;19476;51.448;6.674;2024-02-26T08:27:22;12.10;54.90
33105;DHT22;19476;51.448;6.674;2024-02-26T08:29:49;12.10;54.90
33105;DHT22;19476;51.448;6.674;2024-02-26T08:32:15;12.10;54.90
33105;DHT22;19476;51.448;6.674;2024-02-26T08:34:40;12.20;54.90
33105;DHT22;19476;51.448;6.674;2024-02-26T08:37:06;12.20;54.80
33105;DHT22;19476;51.448;6.674;2024-02-26T08:39:32;12.20;54.80
33105;DHT22;19476;51.448;6.674;2024-02-26T08:41:57;12.20;54.90
33105;DHT22;19476;51.448;6.674;2024-02-26T08:44:23;12.20;55.00
33105;DHT22;19476;51.448;6.674;2024-02-26T08:46:49;12.20;55.10
33105;DHT22;19476;51.448;6.674;2024-02-26T08:49:16;12.20;55.10
33105;DHT22;19476;51.448;6.674;2024-02-26T08:51:42;12.20;55.10
33105;DHT22;19476;51.448;6.674;2024-02-26T08:54:09;12.20;55.20
33105;DHT22;19476;51.448;6.674;2024-02-26T08:56:35;12.20;55.10
33105;DHT22;19476;51.448;6.674;2024-02-26T08:59:00;12.20;55.10
33105;DHT22;19476;51.448;6.674;2024-02-26T09:01:29;12.20;55.30
33105;DHT22;19476;51.448;6.674;2024-02-26T09:03:55;12.20;55.30
33105;DHT22;19476;51.448;6.674;2024-02-26T09:06:21;12.20;55.20
33105;DHT22;19476;51.448;6.674;2024-02-26T09:08:47;12.30;55.20
33105;DHT22;19476;51.448;6.674;2024-02-26T09:11:13;12.30;55.20
33105;DHT22;19476;51.448;6.674;2024-02-26T09:13:39;12.30;55.20
33105;DHT22;19476;51.448;6.674;2024-02-26T09:16:05;12.30;55.10
33105;DHT22;19476;51.448;6.674;2024-02-26T09:18:31;12.30;55.20
33105;DHT22;19476;51.448;6.674;2024-02-26T09:20:57;12.30;55.10
33105;DHT22;19476;51.448;6.674;2024-02-26T09:23:23;12.40;55.20
33105;DHT22;19476;51.448;6.674;2024-02-26T09:25:48;12.40;55.10
33105;DHT22;19476;51.448;6.674;2024-02-26T09:28:14;12.40;55.10
33105;DHT22;19476;51.448;6.674;2024-02-26T09:30:43;12.40;55.00
33105;DHT22;19476;51.448;6.674;2024-02-26T09:33:09;12.40;55.10
33105;DHT22;19476;51.448;6.674;2024-02-26T09:35:35;12.40;55.10
33105;DHT22;19476;51.448;6.674;2024-02-26T09:38:00;12.50;55.00
33105;DHT22;19476;51.448;6.674;2024-02-26T09:40:26;12.50;55.00
33105;DHT22;19476;51.448;6.674;2024-02-26T09:42:59;12.50;55.10
33105;DHT22;19476;51.448;6.674;2024-02-26T09:45:26;12.50;55.20
33105;DHT22;19476;51.448;6.674;2024-02-26T09:47:55;12.50;55.00
33105;DHT22;19476;51.448;6.674;2024-02-26T09:50:21;12.50;54.90
33105;DHT22;19476;51.448;6.674;2024-02-26T09:52:51;12.50;54.80
33105;DHT22;19476;51.448;6.674;2024-02-26T09:55:18;12.50;54.80
33105;DHT22;19476;51.448;6.674;2024-02-26T09:57:46;12.40;54.80
33105;DHT22;19476;51.448;6.674;2024-02-26T10:00:17;12.50;55.00
33105;DHT22;19476;51.448;6.674;2024-02-26T10:02:47;12.40;55.20
33105;DHT22;19476;51.448;6.674;2024-02-26T10:05:17;12.40;55.10
33105;DHT22;19476;51.448;6.674;2024-02-26T10:07:45;12.40;55.10
33105;DHT22;19476;51.448;6.674;2024-02-26T10:10:15;12.50;55.10
33105;DHT22;19476;51.448;6.674;2024-02-26T10:12:42;12.40;55.00
33105;DHT22;19476;51.448;6.674;2024-02-26T10:15:08;12.40;54.90
33105;DHT22;19476;51.448;6.674;2024-02-26T10:17:34;12.40;55.00
33105;DHT22;19476;51.448;6.674;2024-02-26T10:20:14;12.40;55.20
33105;DHT22;19476;51.448;6.674;2024-02-26T10:22:44;12.40;55.60
33105;DHT22;19476;51.448;6.674;2024-02-26T10:25:10;12.40;55.40
33105;DHT22;19476;51.448;6.674;2024-02-26T10:27:36;12.40;55.30
33105;DHT22;19476;51.448;6.674;2024-02-26T10:32:42;12.50;55.60
33105;DHT22;19476;51.448;6.674;2024-02-26T10:35:11;12.50;55.60
33105;DHT22;19476;51.448;6.674;2024-02-26T10:37:37;12.50;55.40
33105;DHT22;19476;51.448;6.674;2024-02-26T10:40:04;12.50;55.30
33105;DHT22;19476;51.448;6.674;2024-02-26T10:42:30;12.50;55.40
33105;DHT22;19476;51.448;6.674;2024-02-26T10:44:58;12.60;55.40
33105;DHT22;19476;51.448;6.674;2024-02-26T10:47:24;12.60;55.40
33105;DHT22;19476;51.448;6.674;2024-02-26T10:49:50;12.60;55.30
33105;DHT22;19476;51.448;6.674;2024-02-26T10:52:18;12.60;55.20
33105;DHT22;19476;51.448;6.674;2024-02-26T10:54:47;12.70;55.40
33105;DHT22;19476;51.448;6.674;2024-02-26T10:57:15;12.60;55.40
33105;DHT22;19476;51.448;6.674;2024-02-26T10:59:44;12.60;55.30
33105;DHT22;19476;51.448;6.674;2024-02-26T11:02:10;12.70;55.40
33105;DHT22;19476;51.448;6.674;2024-02-26T11:04:38;12.70;55.30
33105;DHT22;19476;51.448;6.674;2024-02-26T11:07:05;12.70;55.30
33105;DHT22;19476;51.448;6.674;2024-02-26T11:09:33;12.70;55.40
33105;DHT22;19476;51.448;6.674;2024-02-26T11:11:59;12.80;55.40
33105;DHT22;19476;51.448;6.674;2024-02-26T11:14:26;12.80;55.40
33105;DHT22;19476;51.448;6.674;2024-02-26T11:16:52;12.80;55.40
33105;DHT22;19476;51.448;6.674;2024-02-26T11:19:18;12.80;55.30
33105;DHT22;19476;51.448;6.674;2024-02-26T11:21:45;12.90;55.40
33105;DHT22;19476;51.448;6.674;2024-02-26T11:24:13;12.90;55.40
33105;DHT22;19476;51.448;6.674;2024-02-26T11:29:11;12.90;56.10
33105;DHT22;19476;51.448;6.674;2024-02-26T11:31:39;13.00;55.50
33105;DHT22;19476;51.448;6.674;2024-02-26T11:34:08;13.00;55.40
33105;DHT22;19476;51.448;6.674;2024-02-26T11:36:34;13.00;55.50
33105;DHT22;19476;51.448;6.674;2024-02-26T11:39:00;13.10;55.50
33105;DHT22;19476;51.448;6.674;2024-02-26T11:41:26;13.10;55.50
33105;DHT22;19476;51.448;6.674;2024-02-26T11:44:02;13.10;55.60
33105;DHT22;19476;51.448;6.674;2024-02-26T11:46:33;13.10;55.80
33105;DHT22;19476;51.448;6.674;2024-02-26T11:51:57;13.20;55.60
33105;DHT22;19476;51.448;6.674;2024-02-26T11:54:39;13.20;55.60
33105;DHT22;19476;51.448;6.674;2024-02-26T11:59:55;13.30;55.40
33105;DHT22;19476;51.448;6.674;2024-02-26T12:05:10;13.30;55.20
33105;DHT22;19476;51.448;6.674;2024-02-26T12:11:30;13.40;55.40
33105;DHT22;19476;51.448;6.674;2024-02-26T12:17:01;13.40;55.20
33105;DHT22;19476;51.448;6.674;2024-02-26T12:19:39;13.50;55.20
33105;DHT22;19476;51.448;6.674;2024-02-26T12:25:49;13.50;55.00
33105;DHT22;19476;51.448;6.674;2024-02-26T12:28:27;13.50;55.00
33105;DHT22;19476;51.448;6.674;2024-02-26T12:31:37;13.50;54.80
33105;DHT22;19476;51.448;6.674;2024-02-26T12:37:35;13.50;54.70
33105;DHT22;19476;51.448;6.674;2024-02-26T12:40:29;13.60;54.80
33105;DHT22;19476;51.448;6.674;2024-02-26T12:43:25;13.60;54.90
33105;DHT22;19476;51.448;6.674;2024-02-26T12:46:03;13.60;54.80
33105;DHT22;19476;51.448;6.674;2024-02-26T12:48:33;13.60;54.50
33105;DHT22;19476;51.448;6.674;2024-02-26T12:50:59;13.60;54.30
33105;DHT22;19476;51.448;6.674;2024-02-26T12:53:26;13.60;54.30
33105;DHT22;19476;51.448;6.674;2024-02-26T12:55:54;13.60;54.20
33105;DHT22;19476;51.448;6.674;2024-02-26T12:58:21;13.60;54.00
33105;DHT22;19476;51.448;6.674;2024-02-26T13:00:51;13.70;54.00
33105;DHT22;19476;51.448;6.674;2024-02-26T13:03:17;13.60;54.00
33105;DHT22;19476;51.448;6.674;2024-02-26T13:05:43;13.60;54.00
33105;DHT22;19476;51.448;6.674;2024-02-26T13:08:09;13.60;54.10
33105;DHT22;19476;51.448;6.674;2024-02-26T13:10:35;13.60;53.90
33105;DHT22;19476;51.448;6.674;2024-02-26T13:13:02;13.70;53.90
33105;DHT22;19476;51.448;6.674;2024-02-26T13:15:28;13.70;53.90
33105;DHT22;19476;51.448;6.674;2024-02-26T13:17:54;13.70;53.70
33105;DHT22;19476;51.448;6.674;2024-02-26T13:20:29;13.70;53.50
33105;DHT22;19476;51.448;6.674;2024-02-26T13:23:05;13.70;53.40
33105;DHT22;19476;51.448;6.674;2024-02-26T13:25:31;13.60;53.50
33105;DHT22;19476;51.448;6.674;2024-02-26T13:28:07;13.60;53.60
33105;DHT22;19476;51.448;6.674;2024-02-26T13:30:33;13.60;53.60
33105;DHT22;19476;51.448;6.674;2024-02-26T13:33:10;13.60;53.40
33105;DHT22;19476;51.448;6.674;2024-02-26T13:35:36;13.70;53.20
33105;DHT22;19476;51.448;6.674;2024-02-26T13:38:07;13.70;53.20
33105;DHT22;19476;51.448;6.674;2024-02-26T13:40:33;13.60;53.10
33105;DHT22;19476;51.448;6.674;2024-02-26T13:43:00;13.60;53.00
33105;DHT22;19476;51.448;6.674;2024-02-26T13:45:26;13.60;53.10
33105;DHT22;19476;51.448;6.674;2024-02-26T13:47:51;13.60;53.20
33105;DHT22;19476;51.448;6.674;2024-02-26T13:50:17;13.60;53.20
33105;DHT22;19476;51.448;6.674;2024-02-26T13:52:47;13.60;53.30
33105;DHT22;19476;51.448;6.674;2024-02-26T13:55:13;13.60;53.20
33105;DHT22;19476;51.448;6.674;2024-02-26T13:57:40;13.60;53.10
33105;DHT22;19476;51.448;6.674;2024-02-26T14:00:07;13.70;52.90
33105;DHT22;19476;51.448;6.674;2024-02-26T14:02:33;13.70;53.00
33105;DHT22;19476;51.448;6.674;2024-02-26T14:05:02;13.70;52.90
33105;DHT22;19476;51.448;6.674;2024-02-26T14:07:31;13.60;52.80
33105;DHT22;19476;51.448;6.674;2024-02-26T14:09:59;13.60;52.90
33105;DHT22;19476;51.448;6.674;2024-02-26T14:12:25;13.60;52.80
33105;DHT22;19476;51.448;6.674;2024-02-26T14:14:51;13.60;52.80
33105;DHT22;19476;51.448;6.674;2024-02-26T14:17:19;13.50;52.80
33105;DHT22;19476;51.448;6.674;2024-02-26T14:19:45;13.50;52.90
33105;DHT22;19476;51.448;6.674;2024-02-26T14:22:13;13.50;52.90
33105;DHT22;19476;51.448;6.674;2024-02-26T14:24:40;13.50;53.00
33105;DHT22;19476;51.448;6.674;2024-02-26T14:27:08;13.50;52.90
33105;DHT22;19476;51.448;6.674;2024-02-26T14:29:34;13.50;53.10
33105;DHT22;19476;51.448;6.674;2024-02-26T14:32:00;13.50;52.90
33105;DHT22;19476;51.448;6.674;2024-02-26T14:34:27;13.50;52.90
33105;DHT22;19476;51.448;6.674;2024-02-26T14:36:52;13.50;52.90
33105;DHT22;19476;51.448;6.674;2024-02-26T14:39:18;13.40;53.00
33105;DHT22;19476;51.448;6.674;2024-02-26T14:41:44;13.40;53.00
33105;DHT22;19476;51.448;6.674;2024-02-26T14:44:09;13.40;53.10
33105;DHT22;19476;51.448;6.674;2024-02-26T14:46:36;13.40;53.40
33105;DHT22;19476;51.448;6.674;2024-02-26T14:49:02;13.40;53.50
33105;DHT22;19476;51.448;6.674;2024-02-26T14:51:27;13.40;53.60
33105;DHT22;19476;51.448;6.674;2024-02-26T14:53:53;13.40;53.70
33105;DHT22;19476;51.448;6.674;2024-02-26T14:56:19;13.40;53.70
33105;DHT22;19476;51.448;6.674;2024-02-26T14:58:44;13.40;53.70
33105;DHT22;19476;51.448;6.674;2024-02-26T15:01:11;13.40;53.70
33105;DHT22;19476;51.448;6.674;2024-02-26T15:03:37;13.40;53.70
33105;DHT22;19476;51.448;6.674;2024-02-26T15:06:03;13.50;53.80
33105;DHT22;19476;51.448;6.674;2024-02-26T15:09:00;13.50;53.70
33105;DHT22;19476;51.448;6.674;2024-02-26T15:11:26;13.50;53.60
33105;DHT22;19476;51.448;6.674;2024-02-26T15:13:52;13.50;53.60
33105;DHT22;19476;51.448;6.674;2024-02-26T15:16:18;13.50;53.50
33105;DHT22;19476;51.448;6.674;2024-02-26T15:18:46;13.40;53.40
33105;DHT22;19476;51.448;6.674;2024-02-26T15:21:12;13.50;53.50
33105;DHT22;19476;51.448;6.674;2024-02-26T15:23:39;13.40;53.50
33105;DHT22;19476;51.448;6.674;2024-02-26T15:26:05;13.50;53.70
33105;DHT22;19476;51.448;6.674;2024-02-26T15:28:31;13.50;53.70
33105;DHT22;19476;51.448;6.674;2024-02-26T15:30:56;13.50;53.70
33105;DHT22;19476;51.448;6.674;2024-02-26T15:33:24;13.50;53.60
33105;DHT22;19476;51.448;6.674;2024-02-26T15:35:52;13.50;53.60
33105;DHT22;19476;51.448;6.674;2024-02-26T15:38:17;13.50;53.50
33105;DHT22;19476;51.448;6.674;2024-02-26T15:40:43;13.50;54.00
33105;DHT22;19476;51.448;6.674;2024-02-26T15:43:09;13.50;53.40
33105;DHT22;19476;51.448;6.674;2024-02-26T15:45:35;13.50;53.50
33105;DHT22;19476;51.448;6.674;2024-02-26T15:48:01;13.40;53.40
33105;DHT22;19476;51.448;6.674;2024-02-26T15:50:26;13.40;53.50
33105;DHT22;19476;51.448;6.674;2024-02-26T15:52:52;13.40;53.40
33105;DHT22;19476;51.448;6.674;2024-02-26T15:55:19;13.40;53.50
33105;DHT22;19476;51.448;6.674;2024-02-26T15:57:44;13.40;53.50
33105;DHT22;19476;51.448;6.674;2024-02-26T16:00:10;13.30;53.50
33105;DHT22;19476;51.448;6.674;2024-02-26T16:02:37;13.30;53.60